sensor_id;sensor_type;location;lat;lon;timestamp;temperature;humidity
46458;DHT22;32155;54.076;12.092;2024-01-30T00:01:42;2.80;99.90
46458;DHT22;32155;54.076;12.092;2024-01-30T00:04:07;2.70;99.90
46458;DHT22;32155;54.076;12.092;2024-01-30T00:06:33;2.80;99.90
46458;DHT22;32155;54.076;12.092;2024-01-30T00:08:58;2.90;99.90
46458;DHT22;32155;54.076;12.092;2024-01-30T00:11:24;3.00;99.90
46458;DHT22;32155;54.076;12.092;2024-01-30T00:13:51;3.00;99.90
46458;DHT22;32155;54.076;12.092;2024-01-30T00:16:22;3.10;99.90
46458;DHT22;32155;54.076;12.092;2024-01-30T00:18:49;3.10;99.90
46458;DHT22;32155;54.076;12.092;2024-01-30T00:21:15;3.10;99.90
46458;DHT22;32155;54.076;12.092;2024-01-30T00:23:40;3.10;99.90
46458;DHT22;32155;54.076;12.092;2024-01-30T00:26:06;3.10;99.90
46458;DHT22;32155;54.076;12.092;2024-01-30T00:28:31;3.00;99.90
46458;DHT22;32155;54.076;12.092;2024-01-30T00:30:57;3.00;99.90
46458;DHT22;32155;54.076;12.092;2024-01-30T00:33:22;3.00;99.90
46458;DHT22;32155;54.076;12.092;2024-01-30T00:35:48;3.00;99.90
46458;DHT22;32155;54.076;12.092;2024-01-30T00:38:13;3.00;99.90
46458;DHT22;32155;54.076;12.092;2024-01-30T00:40:39;3.00;99.90
46458;DHT22;32155;54.076;12.092;2024-01-30T00:43:04;3.00;99.90
46458;DHT22;32155;54.076;12.092;2024-01-30T00:45:30;3.00;99.90
46458;DHT22;32155;54.076;12.092;2024-01-30T00:47:56;2.90;99.90
46458;DHT22;32155;54.076;12.092;2024-01-30T00:50:21;2.70;99.90
46458;DHT22;32155;54.076;12.092;2024-01-30T00:52:47;2.70;99.90
46458;DHT22;32155;54.076;12.092;2024-01-30T00:55:12;2.70;99.90
46458;DHT22;32155;54.076;12.092;2024-01-30T00:57:39;2.70;99.90
46458;DHT22;32155;54.076;12.092;2024-01-30T01:00:05;2.70;99.90
46458;DHT22;32155;54.076;12.092;2024-01-30T01:02:33;2.60;99.90
46458;DHT22;32155;54.076;12.092;2024-01-30T01:04:59;2.50;99.90
46458;DHT22;32155;54.076;12.092;2024-01-30T01:07:25;2.60;99.90
46458;DHT22;32155;54.076;12.092;2024-01-30T01:09:50;2.70;99.90
46458;DHT22;32155;54.076;12.092;2024-01-30T01:12:16;2.60;99.90
46458;DHT22;32155;54.076;12.092;2024-01-30T01:14:41;2.60;99.90
46458;DHT22;32155;54.076;12.092;2024-01-30T01:17:07;2.70;99.90
46458;DHT22;32155;54.076;12.092;2024-01-30T01:19:32;2.60;99.90
46458;DHT22;32155;54.076;12.092;2024-01-30T01:21:58;2.60;99.90
46458;DHT22;32155;54.076;12.092;2024-01-30T01:24:23;2.60;99.90
46458;DHT22;32155;54.076;12.092;2024-01-30T01:26:49;2.50;99.90
46458;DHT22;32155;54.076;12.092;2024-01-30T01:29:15;2.60;99.90
46458;DHT22;32155;54.076;12.092;2024-01-30T01:31:41;2.50;99.90
46458;DHT22;32155;54.076;12.092;2024-01-30T01:34:10;2.40;99.90
46458;DHT22;32155;54.076;12.092;2024-01-30T01:36:35;2.30;99.90
46458;DHT22;32155;54.076;12.092;2024-01-30T01:39:01;2.40;99.90
46458;DHT22;32155;54.076;12.092;2024-01-30T01:41:29;2.40;99.90
46458;DHT22;32155;54.076;12.092;2024-01-30T01:43:55;2.40;99.90
46458;DHT22;32155;54.076;12.092;2024-01-30T01:46:23;2.30;99.90
46458;DHT22;32155;54.076;12.092;2024-01-30T01:48:48;2.30;99.90
46458;DHT22;32155;54.076;12.092;2024-01-30T01:51:14;2.30;99.90
46458;DHT22;32155;54.076;12.092;2024-01-30T01:53:40;2.50;99.90
46458;DHT22;32155;54.076;12.092;2024-01-30T01:56:06;2.60;99.90
46458;DHT22;32155;54.076;12.092;2024-01-30T01:58:31;2.50;99.90
46458;DHT22;32155;54.076;12.092;2024-01-30T02:00:58;2.50;99.90
46458;DHT22;32155;54.076;12.092;2024-01-30T02:03:24;2.50;99.90
46458;DHT22;32155;54.076;12.092;2024-01-30T02:05:52;2.50;99.90
46458;DHT22;32155;54.076;12.092;2024-01-30T02:08:19;2.40;99.90
46458;DHT22;32155;54.076;12.092;2024-01-30T02:10:44;2.40;99.90
46458;DHT22;32155;54.076;12.092;2024-01-30T02:13:10;2.30;99.90
46458;DHT22;32155;54.076;12.092;2024-01-30T02:15:36;2.20;99.90
46458;DHT22;32155;54.076;12.092;2024-01-30T02:18:04;2.10;99.90
46458;DHT22;32155;54.076;12.092;2024-01-30T02:20:30;2.20;99.90
46458;DHT22;32155;54.076;12.092;2024-01-30T02:22:57;2.30;99.90
46458;DHT22;32155;54.076;12.092;2024-01-30T02:25:33;2.40;99.90
46458;DHT22;32155;54.076;12.092;2024-01-30T02:27:58;2.20;99.90
46458;DHT22;32155;54.076;12.092;2024-01-30T02:30:24;2.20;99.90
46458;DHT22;32155;54.076;12.092;2024-01-30T02:32:49;2.10;99.90
46458;DHT22;32155;54.076;12.092;2024-01-30T02:35:15;2.20;99.90
46458;DHT22;32155;54.076;12.092;2024-01-30T02:37:40;2.20;99.90
46458;DHT22;32155;54.076;12.092;2024-01-30T02:40:06;2.30;99.90
46458;DHT22;32155;54.076;12.092;2024-01-30T02:42:32;2.40;99.90
46458;DHT22;32155;54.076;12.092;2024-01-30T02:44:57;2.40;99.90
46458;DHT22;32155;54.076;12.092;2024-01-30T02:47:23;2.30;99.90
46458;DHT22;32155;54.076;12.092;2024-01-30T02:49:48;2.30;99.90
46458;DHT22;32155;54.076;12.092;2024-01-30T02:52:14;2.40;99.90
46458;DHT22;32155;54.076;12.092;2024-01-30T02:54:39;2.50;99.90
46458;DHT22;32155;54.076;12.092;2024-01-30T02:57:05;2.70;99.90
46458;DHT22;32155;54.076;12.092;2024-01-30T02:59:30;2.80;99.90
46458;DHT22;32155;54.076;12.092;2024-01-30T03:01:58;2.90;99.90
46458;DHT22;32155;54.076;12.092;2024-01-30T03:04:24;3.00;99.90
46458;DHT22;32155;54.076;12.092;2024-01-30T03:06:50;3.00;99.90
46458;DHT22;32155;54.076;12.092;2024-01-30T03:09:16;3.00;99.90
46458;DHT22;32155;54.076;12.092;2024-01-30T03:11:41;3.10;99.90
46458;DHT22;32155;54.076;12.092;2024-01-30T03:14:07;3.40;99.90
46458;DHT22;32155;54.076;12.092;2024-01-30T03:16:33;3.40;99.90
46458;DHT22;32155;54.076;12.092;2024-01-30T03:18:58;3.40;99.90
46458;DHT22;32155;54.076;12.092;2024-01-30T03:21:26;3.50;99.90
46458;DHT22;32155;54.076;12.092;2024-01-30T03:23:51;3.50;99.90
46458;DHT22;32155;54.076;12.092;2024-01-30T03:26:17;3.60;99.90
46458;DHT22;32155;54.076;12.092;2024-01-30T03:28:42;3.70;99.90
46458;DHT22;32155;54.076;12.092;2024-01-30T03:31:08;3.60;99.90
46458;DHT22;32155;54.076;12.092;2024-01-30T03:33:33;3.50;99.90
46458;DHT22;32155;54.076;12.092;2024-01-30T03:36:02;3.40;99.90
46458;DHT22;32155;54.076;12.092;2024-01-30T03:38:28;3.40;99.90
46458;DHT22;32155;54.076;12.092;2024-01-30T03:40:58;3.50;99.90
46458;DHT22;32155;54.076;12.092;2024-01-30T03:43:23;3.40;99.90
46458;DHT22;32155;54.076;12.092;2024-01-30T03:45:49;3.40;99.90
46458;DHT22;32155;54.076;12.092;2024-01-30T03:48:14;3.40;99.90
46458;DHT22;32155;54.076;12.092;2024-01-30T03:50:40;3.40;99.90
46458;DHT22;32155;54.076;12.092;2024-01-30T03:53:05;3.50;99.90
46458;DHT22;32155;54.076;12.092;2024-01-30T03:55:31;3.50;99.90
46458;DHT22;32155;54.076;12.092;2024-01-30T03:57:56;3.60;99.90
46458;DHT22;32155;54.076;12.092;2024-01-30T04:00:22;3.60;99.90
46458;DHT22;32155;54.076;12.092;2024-01-30T04:02:47;3.70;99.90
46458;DHT22;32155;54.076;12.092;2024-01-30T04:05:13;3.80;99.90
46458;DHT22;32155;54.076;12.092;2024-01-30T04:07:39;3.90;99.90
46458;DHT22;32155;54.076;12.092;2024-01-30T04:10:04;3.90;99.90
46458;DHT22;32155;54.076;12.092;2024-01-30T04:12:31;3.80;99.90
46458;DHT22;32155;54.076;12.092;2024-01-30T04:14:56;3.90;99.90
46458;DHT22;32155;54.076;12.092;2024-01-30T04:17:22;3.80;99.90
46458;DHT22;32155;54.076;12.092;2024-01-30T04:19:47;3.90;99.90
46458;DHT22;32155;54.076;12.092;2024-01-30T04:22:13;3.80;99.90
46458;DHT22;32155;54.076;12.092;2024-01-30T04:24:38;3.70;99.90
46458;DHT22;32155;54.076;12.092;2024-01-30T04:27:04;3.80;99.90
46458;DHT22;32155;54.076;12.092;2024-01-30T04:29:29;3.90;99.90
46458;DHT22;32155;54.076;12.092;2024-01-30T04:31:55;3.80;99.90
46458;DHT22;32155;54.076;12.092;2024-01-30T04:34:20;3.70;99.90
46458;DHT22;32155;54.076;12.092;2024-01-30T04:36:46;3.90;99.90
46458;DHT22;32155;54.076;12.092;2024-01-30T04:39:11;3.90;99.90
46458;DHT22;32155;54.076;12.092;2024-01-30T04:41:38;3.90;99.90
46458;DHT22;32155;54.076;12.092;2024-01-30T04:44:03;4.00;99.90
46458;DHT22;32155;54.076;12.092;2024-01-30T04:46:29;4.20;99.90
46458;DHT22;32155;54.076;12.092;2024-01-30T04:48:54;4.20;99.90
46458;DHT22;32155;54.076;12.092;2024-01-30T04:51:20;4.20;99.90
46458;DHT22;32155;54.076;12.092;2024-01-30T04:53:45;4.20;99.90
46458;DHT22;32155;54.076;12.092;2024-01-30T04:56:11;4.10;99.90
46458;DHT22;32155;54.076;12.092;2024-01-30T04:58:36;4.20;99.90
46458;DHT22;32155;54.076;12.092;2024-01-30T05:01:02;4.40;99.90
46458;DHT22;32155;54.076;12.092;2024-01-30T05:03:27;4.30;99.90
46458;DHT22;32155;54.076;12.092;2024-01-30T05:05:53;4.20;99.90
46458;DHT22;32155;54.076;12.092;2024-01-30T05:08:18;4.30;99.90
46458;DHT22;32155;54.076;12.092;2024-01-30T05:10:44;4.30;99.90
46458;DHT22;32155;54.076;12.092;2024-01-30T05:13:09;4.40;99.90
46458;DHT22;32155;54.076;12.092;2024-01-30T05:15:35;4.40;99.90
46458;DHT22;32155;54.076;12.092;2024-01-30T05:18:01;4.30;99.90
46458;DHT22;32155;54.076;12.092;2024-01-30T05:20:26;4.30;99.90
46458;DHT22;32155;54.076;12.092;2024-01-30T05:22:55;4.20;99.90
46458;DHT22;32155;54.076;12.092;2024-01-30T05:25:20;4.00;99.90
46458;DHT22;32155;54.076;12.092;2024-01-30T05:27:46;4.00;99.90
46458;DHT22;32155;54.076;12.092;2024-01-30T05:30:11;4.00;99.90
46458;DHT22;32155;54.076;12.092;2024-01-30T05:32:37;3.80;99.90
46458;DHT22;32155;54.076;12.092;2024-01-30T05:35:03;3.70;99.90
46458;DHT22;32155;54.076;12.092;2024-01-30T05:37:28;3.50;99.90
46458;DHT22;32155;54.076;12.092;2024-01-30T05:39:54;3.40;99.90
46458;DHT22;32155;54.076;12.092;2024-01-30T05:42:19;3.50;99.90
46458;DHT22;32155;54.076;12.092;2024-01-30T05:44:45;3.50;99.90
46458;DHT22;32155;54.076;12.092;2024-01-30T05:47:10;3.40;99.90
46458;DHT22;32155;54.076;12.092;2024-01-30T05:49:36;3.40;99.90
46458;DHT22;32155;54.076;12.092;2024-01-30T05:52:02;3.30;99.90
46458;DHT22;32155;54.076;12.092;2024-01-30T05:54:28;3.30;99.90
46458;DHT22;32155;54.076;12.092;2024-01-30T05:56:53;3.30;99.90
46458;DHT22;32155;54.076;12.092;2024-01-30T05:59:19;3.20;99.90
46458;DHT22;32155;54.076;12.092;2024-01-30T06:01:45;3.20;99.90
46458;DHT22;32155;54.076;12.092;2024-01-30T06:04:11;3.20;99.90
46458;DHT22;32155;54.076;12.092;2024-01-30T06:06:36;3.20;99.90
46458;DHT22;32155;54.076;12.092;2024-01-30T06:09:04;3.10;99.90
46458;DHT22;32155;54.076;12.092;2024-01-30T06:11:29;3.20;99.90
46458;DHT22;32155;54.076;12.092;2024-01-30T06:13:55;3.20;99.90
46458;DHT22;32155;54.076;12.092;2024-01-30T06:16:20;3.20;99.90
46458;DHT22;32155;54.076;12.092;2024-01-30T06:18:47;3.20;99.90
46458;DHT22;32155;54.076;12.092;2024-01-30T06:21:14;3.20;99.90
46458;DHT22;32155;54.076;12.092;2024-01-30T06:23:39;3.20;99.90
46458;DHT22;32155;54.076;12.092;2024-01-30T06:26:06;3.10;99.90
46458;DHT22;32155;54.076;12.092;2024-01-30T06:28:31;3.10;99.90
46458;DHT22;32155;54.076;12.092;2024-01-30T06:30:57;3.10;99.90
46458;DHT22;32155;54.076;12.092;2024-01-30T06:33:22;3.00;99.90
46458;DHT22;32155;54.076;12.092;2024-01-30T06:35:48;3.00;99.90
46458;DHT22;32155;54.076;12.092;2024-01-30T06:38:13;3.00;99.90
46458;DHT22;32155;54.076;12.092;2024-01-30T06:40:41;3.00;99.90
46458;DHT22;32155;54.076;12.092;2024-01-30T06:43:07;3.10;99.90
46458;DHT22;32155;54.076;12.092;2024-01-30T06:45:33;3.10;99.90
46458;DHT22;32155;54.076;12.092;2024-01-30T06:47:59;3.10;99.90
46458;DHT22;32155;54.076;12.092;2024-01-30T06:50:25;3.10;99.90
46458;DHT22;32155;54.076;12.092;2024-01-30T06:52:53;3.10;99.90
46458;DHT22;32155;54.076;12.092;2024-01-30T06:55:18;3.10;99.90
46458;DHT22;32155;54.076;12.092;2024-01-30T06:57:44;3.20;99.90
46458;DHT22;32155;54.076;12.092;2024-01-30T07:00:09;3.10;99.90
46458;DHT22;32155;54.076;12.092;2024-01-30T07:02:35;3.10;99.90
46458;DHT22;32155;54.076;12.092;2024-01-30T07:05:00;3.10;99.90
46458;DHT22;32155;54.076;12.092;2024-01-30T07:07:26;3.10;99.90
46458;DHT22;32155;54.076;12.092;2024-01-30T07:09:51;3.10;99.90
46458;DHT22;32155;54.076;12.092;2024-01-30T07:12:24;3.10;99.90
46458;DHT22;32155;54.076;12.092;2024-01-30T07:14:54;3.20;99.90
46458;DHT22;32155;54.076;12.092;2024-01-30T07:17:21;3.30;99.90
46458;DHT22;32155;54.076;12.092;2024-01-30T07:19:47;3.30;99.90
46458;DHT22;32155;54.076;12.092;2024-01-30T07:22:12;3.20;99.90
46458;DHT22;32155;54.076;12.092;2024-01-30T07:24:42;3.20;99.90
46458;DHT22;32155;54.076;12.092;2024-01-30T07:27:09;3.20;99.90
46458;DHT22;32155;54.076;12.092;2024-01-30T07:29:38;3.20;99.90
46458;DHT22;32155;54.076;12.092;2024-01-30T07:32:04;3.30;99.90
46458;DHT22;32155;54.076;12.092;2024-01-30T07:34:29;3.40;99.90
46458;DHT22;32155;54.076;12.092;2024-01-30T07:36:55;3.50;99.90
46458;DHT22;32155;54.076;12.092;2024-01-30T07:39:20;3.40;99.90
46458;DHT22;32155;54.076;12.092;2024-01-30T07:41:46;3.40;99.90
46458;DHT22;32155;54.076;12.092;2024-01-30T07:44:11;3.40;99.90
46458;DHT22;32155;54.076;12.092;2024-01-30T07:46:37;3.40;99.90
46458;DHT22;32155;54.076;12.092;2024-01-30T07:49:02;3.40;99.90
46458;DHT22;32155;54.076;12.092;2024-01-30T07:51:28;3.30;99.90
46458;DHT22;32155;54.076;12.092;2024-01-30T07:53:54;3.40;99.90
46458;DHT22;32155;54.076;12.092;2024-01-30T07:56:20;3.40;99.90
46458;DHT22;32155;54.076;12.092;2024-01-30T07:58:46;3.50;99.90
46458;DHT22;32155;54.076;12.092;2024-01-30T08:01:11;3.50;99.90
46458;DHT22;32155;54.076;12.092;2024-01-30T08:03:37;3.60;99.90
46458;DHT22;32155;54.076;12.092;2024-01-30T08:06:05;3.70;99.90
46458;DHT22;32155;54.076;12.092;2024-01-30T08:08:32;3.70;99.90
46458;DHT22;32155;54.076;12.092;2024-01-30T08:10:57;3.80;99.90
46458;DHT22;32155;54.076;12.092;2024-01-30T08:13:23;3.80;99.90
46458;DHT22;32155;54.076;12.092;2024-01-30T08:15:48;3.90;99.90
46458;DHT22;32155;54.076;12.092;2024-01-30T08:18:14;3.90;99.90
46458;DHT22;32155;54.076;12.092;2024-01-30T08:20:39;3.90;99.90
46458;DHT22;32155;54.076;12.092;2024-01-30T08:23:05;4.00;99.90
46458;DHT22;32155;54.076;12.092;2024-01-30T08:25:30;4.10;99.90
46458;DHT22;32155;54.076;12.092;2024-01-30T08:27:56;4.10;99.90
46458;DHT22;32155;54.076;12.092;2024-01-30T08:30:22;4.20;99.90
46458;DHT22;32155;54.076;12.092;2024-01-30T08:32:48;4.30;99.90
46458;DHT22;32155;54.076;12.092;2024-01-30T08:35:13;4.40;99.90
46458;DHT22;32155;54.076;12.092;2024-01-30T08:37:40;4.40;99.90
46458;DHT22;32155;54.076;12.092;2024-01-30T08:40:07;4.60;99.90
46458;DHT22;32155;54.076;12.092;2024-01-30T08:42:36;4.90;99.90
46458;DHT22;32155;54.076;12.092;2024-01-30T08:45:01;5.10;99.90
46458;DHT22;32155;54.076;12.092;2024-01-30T08:47:27;5.30;99.90
46458;DHT22;32155;54.076;12.092;2024-01-30T08:49:53;5.30;99.90
46458;DHT22;32155;54.076;12.092;2024-01-30T08:52:18;5.40;99.90
46458;DHT22;32155;54.076;12.092;2024-01-30T08:54:44;5.70;99.90
46458;DHT22;32155;54.076;12.092;2024-01-30T08:57:09;6.00;99.90
46458;DHT22;32155;54.076;12.092;2024-01-30T08:59:35;6.10;99.90
46458;DHT22;32155;54.076;12.092;2024-01-30T09:02:00;6.60;99.90
46458;DHT22;32155;54.076;12.092;2024-01-30T09:04:26;7.20;99.90
46458;DHT22;32155;54.076;12.092;2024-01-30T09:06:51;8.00;99.90
46458;DHT22;32155;54.076;12.092;2024-01-30T09:09:17;8.90;99.90
46458;DHT22;32155;54.076;12.092;2024-01-30T09:11:43;9.50;99.90
46458;DHT22;32155;54.076;12.092;2024-01-30T09:14:08;10.10;99.90
46458;DHT22;32155;54.076;12.092;2024-01-30T09:16:34;10.50;99.90
46458;DHT22;32155;54.076;12.092;2024-01-30T09:19:02;11.30;99.90
46458;DHT22;32155;54.076;12.092;2024-01-30T09:21:28;11.40;99.90
46458;DHT22;32155;54.076;12.092;2024-01-30T09:24:01;11.50;99.90
46458;DHT22;32155;54.076;12.092;2024-01-30T09:26:27;11.40;99.90
46458;DHT22;32155;54.076;12.092;2024-01-30T09:28:52;11.30;99.90
46458;DHT22;32155;54.076;12.092;2024-01-30T09:31:18;10.70;99.90
46458;DHT22;32155;54.076;12.092;2024-01-30T09:33:43;10.60;99.90
46458;DHT22;32155;54.076;12.092;2024-01-30T09:36:11;10.30;99.90
46458;DHT22;32155;54.076;12.092;2024-01-30T09:38:40;10.30;99.90
46458;DHT22;32155;54.076;12.092;2024-01-30T09:41:09;9.10;99.90
46458;DHT22;32155;54.076;12.092;2024-01-30T09:43:36;8.50;99.90
46458;DHT22;32155;54.076;12.092;2024-01-30T09:46:03;7.90;99.90
46458;DHT22;32155;54.076;12.092;2024-01-30T09:48:30;7.60;99.90
46458;DHT22;32155;54.076;12.092;2024-01-30T09:50:56;7.80;99.90
46458;DHT22;32155;54.076;12.092;2024-01-30T09:53:22;7.80;99.90
46458;DHT22;32155;54.076;12.092;2024-01-30T09:55:48;8.40;99.90
46458;DHT22;32155;54.076;12.092;2024-01-30T09:58:16;8.10;99.90
46458;DHT22;32155;54.076;12.092;2024-01-30T10:00:41;8.30;99.90
46458;DHT22;32155;54.076;12.092;2024-01-30T10:03:16;8.20;99.90
46458;DHT22;32155;54.076;12.092;2024-01-30T10:05:44;8.00;99.90
46458;DHT22;32155;54.076;12.092;2024-01-30T10:08:14;7.90;99.90
46458;DHT22;32155;54.076;12.092;2024-01-30T10:10:49;7.70;99.90
46458;DHT22;32155;54.076;12.092;2024-01-30T10:13:15;7.80;99.90
46458;DHT22;32155;54.076;12.092;2024-01-30T10:15:41;8.10;99.90
46458;DHT22;32155;54.076;12.092;2024-01-30T10:18:08;8.20;99.90
46458;DHT22;32155;54.076;12.092;2024-01-30T10:21:10;8.50;99.90
46458;DHT22;32155;54.076;12.092;2024-01-30T10:23:44;8.50;99.90
46458;DHT22;32155;54.076;12.092;2024-01-30T10:26:18;8.60;99.90
46458;DHT22;32155;54.076;12.092;2024-01-30T10:28:50;8.40;99.90
46458;DHT22;32155;54.076;12.092;2024-01-30T10:31:17;8.50;99.90
46458;DHT22;32155;54.076;12.092;2024-01-30T10:33:43;8.80;99.90
46458;DHT22;32155;54.076;12.092;2024-01-30T10:36:09;9.00;99.90
46458;DHT22;32155;54.076;12.092;2024-01-30T10:38:41;9.40;99.90
46458;DHT22;32155;54.076;12.092;2024-01-30T10:41:10;9.50;99.90
46458;DHT22;32155;54.076;12.092;2024-01-30T10:43:42;9.20;99.90
46458;DHT22;32155;54.076;12.092;2024-01-30T10:46:20;9.30;99.90
46458;DHT22;32155;54.076;12.092;2024-01-30T10:48:52;9.90;99.90
46458;DHT22;32155;54.076;12.092;2024-01-30T10:51:27;10.90;99.90
46458;DHT22;32155;54.076;12.092;2024-01-30T10:53:53;11.30;99.90
46458;DHT22;32155;54.076;12.092;2024-01-30T10:56:21;11.20;99.90
46458;DHT22;32155;54.076;12.092;2024-01-30T10:58:47;10.70;99.90
46458;DHT22;32155;54.076;12.092;2024-01-30T11:04:20;10.40;99.90
46458;DHT22;32155;54.076;12.092;2024-01-30T11:06:49;9.90;99.90
46458;DHT22;32155;54.076;12.092;2024-01-30T11:09:16;9.70;99.90
46458;DHT22;32155;54.076;12.092;2024-01-30T11:11:51;9.70;99.90
46458;DHT22;32155;54.076;12.092;2024-01-30T11:14:22;10.10;99.90
46458;DHT22;32155;54.076;12.092;2024-01-30T11:16:48;10.10;99.90
46458;DHT22;32155;54.076;12.092;2024-01-30T11:19:14;10.20;99.90
46458;DHT22;32155;54.076;12.092;2024-01-30T11:24:40;10.50;99.90
46458;DHT22;32155;54.076;12.092;2024-01-30T11:27:09;11.10;99.90
46458;DHT22;32155;54.076;12.092;2024-01-30T11:32:37;10.80;99.90
46458;DHT22;32155;54.076;12.092;2024-01-30T11:35:03;10.00;99.90
46458;DHT22;32155;54.076;12.092;2024-01-30T11:37:31;9.80;99.90
46458;DHT22;32155;54.076;12.092;2024-01-30T11:39:59;9.90;99.90
46458;DHT22;32155;54.076;12.092;2024-01-30T11:42:27;9.70;99.90
46458;DHT22;32155;54.076;12.092;2024-01-30T11:44:59;9.50;99.90
46458;DHT22;32155;54.076;12.092;2024-01-30T11:47:25;9.40;99.90
46458;DHT22;32155;54.076;12.092;2024-01-30T11:49:51;9.50;99.90
46458;DHT22;32155;54.076;12.092;2024-01-30T11:52:25;9.30;99.90
46458;DHT22;32155;54.076;12.092;2024-01-30T11:55:14;9.10;99.90
46458;DHT22;32155;54.076;12.092;2024-01-30T11:57:47;9.00;99.90
46458;DHT22;32155;54.076;12.092;2024-01-30T12:00:18;9.00;99.90
46458;DHT22;32155;54.076;12.092;2024-01-30T12:02:48;9.10;99.90
46458;DHT22;32155;54.076;12.092;2024-01-30T12:08:14;9.40;99.90
46458;DHT22;32155;54.076;12.092;2024-01-30T12:10:45;9.10;99.90
46458;DHT22;32155;54.076;12.092;2024-01-30T12:13:13;8.90;99.90
46458;DHT22;32155;54.076;12.092;2024-01-30T12:15:54;8.90;99.90
46458;DHT22;32155;54.076;12.092;2024-01-30T12:18:22;8.90;99.90
46458;DHT22;32155;54.076;12.092;2024-01-30T12:21:06;9.20;99.90
46458;DHT22;32155;54.076;12.092;2024-01-30T12:23:36;9.30;99.90
46458;DHT22;32155;54.076;12.092;2024-01-30T12:26:02;9.20;99.90
46458;DHT22;32155;54.076;12.092;2024-01-30T12:28:33;9.20;99.90
46458;DHT22;32155;54.076;12.092;2024-01-30T12:31:04;9.30;99.90
46458;DHT22;32155;54.076;12.092;2024-01-30T12:33:49;9.20;99.90
46458;DHT22;32155;54.076;12.092;2024-01-30T12:36:14;9.40;99.90
46458;DHT22;32155;54.076;12.092;2024-01-30T12:38:42;9.70;99.90
46458;DHT22;32155;54.076;12.092;2024-01-30T12:43:56;9.40;99.90
46458;DHT22;32155;54.076;12.092;2024-01-30T12:46:26;9.40;99.90
46458;DHT22;32155;54.076;12.092;2024-01-30T12:49:08;9.40;99.90
46458;DHT22;32155;54.076;12.092;2024-01-30T12:54:42;9.40;99.90
46458;DHT22;32155;54.076;12.092;2024-01-30T12:57:08;9.50;99.90
46458;DHT22;32155;54.076;12.092;2024-01-30T12:59:39;9.60;99.90
46458;DHT22;32155;54.076;12.092;2024-01-30T13:02:05;9.50;99.90
46458;DHT22;32155;54.076;12.092;2024-01-30T13:04:38;9.50;99.90
46458;DHT22;32155;54.076;12.092;2024-01-30T13:07:06;9.50;99.90
46458;DHT22;32155;54.076;12.092;2024-01-30T13:18:47;9.00;99.90
46458;DHT22;32155;54.076;12.092;2024-01-30T13:21:13;9.00;99.90
46458;DHT22;32155;54.076;12.092;2024-01-30T13:23:39;9.00;99.90
46458;DHT22;32155;54.076;12.092;2024-01-30T13:26:05;9.10;99.90
46458;DHT22;32155;54.076;12.092;2024-01-30T13:28:35;9.30;99.90
46458;DHT22;32155;54.076;12.092;2024-01-30T13:31:01;9.50;99.90
46458;DHT22;32155;54.076;12.092;2024-01-30T13:33:37;9.60;99.90
46458;DHT22;32155;54.076;12.092;2024-01-30T13:38:41;9.50;99.90
46458;DHT22;32155;54.076;12.092;2024-01-30T13:41:07;9.40;99.90
46458;DHT22;32155;54.076;12.092;2024-01-30T13:43:35;9.40;99.90
46458;DHT22;32155;54.076;12.092;2024-01-30T13:46:01;9.30;99.90
46458;DHT22;32155;54.076;12.092;2024-01-30T13:48:46;9.30;99.90
46458;DHT22;32155;54.076;12.092;2024-01-30T13:51:12;9.40;99.90
46458;DHT22;32155;54.076;12.092;2024-01-30T13:53:38;9.20;99.90
46458;DHT22;32155;54.076;12.092;2024-01-30T13:56:04;9.00;99.90
46458;DHT22;32155;54.076;12.092;2024-01-30T13:58:32;8.90;99.90
46458;DHT22;32155;54.076;12.092;2024-01-30T14:01:01;8.90;99.90
46458;DHT22;32155;54.076;12.092;2024-01-30T14:03:30;8.90;99.90
46458;DHT22;32155;54.076;12.092;2024-01-30T14:05:56;8.80;99.90
46458;DHT22;32155;54.076;12.092;2024-01-30T14:08:22;8.80;99.90
46458;DHT22;32155;54.076;12.092;2024-01-30T14:10:53;8.90;99.90
46458;DHT22;32155;54.076;12.092;2024-01-30T14:13:37;8.80;99.90
46458;DHT22;32155;54.076;12.092;2024-01-30T14:16:02;8.70;99.90
46458;DHT22;32155;54.076;12.092;2024-01-30T14:18:28;8.70;99.90
46458;DHT22;32155;54.076;12.092;2024-01-30T14:20:56;8.70;99.90
46458;DHT22;32155;54.076;12.092;2024-01-30T14:23:25;8.60;99.90
46458;DHT22;32155;54.076;12.092;2024-01-30T14:25:54;8.60;99.90
46458;DHT22;32155;54.076;12.092;2024-01-30T14:31:48;8.60;99.90
46458;DHT22;32155;54.076;12.092;2024-01-30T14:41:22;8.50;99.90
46458;DHT22;32155;54.076;12.092;2024-01-30T14:43:56;8.40;99.90
46458;DHT22;32155;54.076;12.092;2024-01-30T14:46:22;8.40;99.90
46458;DHT22;32155;54.076;12.092;2024-01-30T14:52:27;8.40;99.90
46458;DHT22;32155;54.076;12.092;2024-01-30T14:54:55;8.30;99.90
46458;DHT22;32155;54.076;12.092;2024-01-30T14:57:27;8.30;99.90
46458;DHT22;32155;54.076;12.092;2024-01-30T15:00:39;8.30;99.90
46458;DHT22;32155;54.076;12.092;2024-01-30T15:03:07;8.20;99.90
46458;DHT22;32155;54.076;12.092;2024-01-30T15:05:33;8.20;99.90
46458;DHT22;32155;54.076;12.092;2024-01-30T15:08:01;8.20;99.90
46458;DHT22;32155;54.076;12.092;2024-01-30T15:10:36;8.10;99.90
46458;DHT22;32155;54.076;12.092;2024-01-30T15:13:02;8.10;99.90
46458;DHT22;32155;54.076;12.092;2024-01-30T15:15:40;8.10;99.90
46458;DHT22;32155;54.076;12.092;2024-01-30T15:18:23;8.10;99.90
46458;DHT22;32155;54.076;12.092;2024-01-30T15:20:54;8.10;99.90
46458;DHT22;32155;54.076;12.092;2024-01-30T15:23:23;8.00;99.90
46458;DHT22;32155;54.076;12.092;2024-01-30T15:28:42;8.00;99.90
46458;DHT22;32155;54.076;12.092;2024-01-30T15:31:20;8.00;99.90
46458;DHT22;32155;54.076;12.092;2024-01-30T15:33:46;8.00;99.90
46458;DHT22;32155;54.076;12.092;2024-01-30T15:36:12;8.00;99.90
46458;DHT22;32155;54.076;12.092;2024-01-30T15:38:40;8.10;99.90
46458;DHT22;32155;54.076;12.092;2024-01-30T15:41:06;8.10;99.90
46458;DHT22;32155;54.076;12.092;2024-01-30T15:43:32;8.00;99.90
46458;DHT22;32155;54.076;12.092;2024-01-30T15:46:00;8.10;99.90
46458;DHT22;32155;54.076;12.092;2024-01-30T15:48:28;8.10;99.90
46458;DHT22;32155;54.076;12.092;2024-01-30T15:50:53;8.10;99.90
46458;DHT22;32155;54.076;12.092;2024-01-30T15:53:20;8.10;99.90
46458;DHT22;32155;54.076;12.092;2024-01-30T15:55:45;8.30;99.90
46458;DHT22;32155;54.076;12.092;2024-01-30T15:58:11;8.30;99.90
46458;DHT22;32155;54.076;12.092;2024-01-30T16:00:36;8.30;99.90
46458;DHT22;32155;54.076;12.092;2024-01-30T16:03:02;8.30;99.90
46458;DHT22;32155;54.076;12.092;2024-01-30T16:05:28;8.30;99.90
46458;DHT22;32155;54.076;12.092;2024-01-30T16:07:53;8.20;99.90
46458;DHT22;32155;54.076;12.092;2024-01-30T16:10:20;8.20;99.90
46458;DHT22;32155;54.076;12.092;2024-01-30T16:12:46;8.20;99.90
46458;DHT22;32155;54.076;12.092;2024-01-30T16:15:12;8.20;99.90
46458;DHT22;32155;54.076;12.092;2024-01-30T16:17:41;8.30;99.90